Weather at Maganey Airstrip

Public forecast

Using degrees Celsius for public forecast. Weather courtesy of forecast.io.

Closest aviation weather report (METAR) to Maganey Airstrip

Closest report is Casement Air Base, 29.7 nm (55.0 km) NE. Retrieved 2021/01/28 07:00 UTC (37 minutes ago):

EIME 280700Z 23017KT 6000 FEW018 BKN037 10/08 Q0997

Closest aviation forecast (TAF) to Maganey Airstrip

Closest forecast is Dublin Airport, 39.4 nm (72.9 km) NE. Retrieved 2021/01/28 06:09 UTC (1 hour ago):

TAF EIDW 280500Z 2806/2906 25012KT 9999 FEW010 SCT020 TEMPO 2806/2810 26015G25KT BECMG 2814/2816 20010KT PROB30 TEMPO 2816/2820 3000 RADZ BKN014